Time;durP1;ratioP1;P1;durP2;ratioP2;P2;SDS_P1;SDS_P2;PMS_P1;PMS_P2;Temp;Humidity;BMP_temperature;BMP_pressure;BME280_temperature;BME280_humidity;BME280_pressure;Samples;Min_cycle;Max_cycle;Signal;HPM_P1;HPM_P2
2023/10/22 00:02:05;;;;;;;43.57;40.37;;;9.00;93.30;;;;;;5092827;28;20242;-91
2023/10/22 00:04:31;;;;;;;45.70;42.30;;;9.00;93.30;;;;;;5093998;28;20205;-90
2023/10/22 00:06:57;;;;;;;46.60;43.40;;;8.90;93.30;;;;;;5093924;28;20255;-90
2023/10/22 00:09:23;;;;;;;47.10;44.00;;;8.80;93.30;;;;;;5092735;28;20208;-90
2023/10/22 00:11:48;;;;;;;46.53;43.23;;;8.80;93.30;;;;;;5092594;28;20178;-90
2023/10/22 00:14:14;;;;;;;45.60;42.60;;;8.80;93.30;;;;;;5094227;28;20213;-90
2023/10/22 00:16:39;;;;;;;44.70;41.90;;;8.80;93.40;;;;;;5092547;28;20582;-90
2023/10/22 00:19:06;;;;;;;47.33;44.13;;;8.70;93.40;;;;;;5092504;28;20596;-90
2023/10/22 00:21:32;;;;;;;47.87;44.47;;;8.70;93.40;;;;;;5092514;28;20263;-90
2023/10/22 00:23:57;;;;;;;47.27;43.97;;;8.70;93.50;;;;;;5093610;28;20610;-90
2023/10/22 00:26:23;;;;;;;47.70;44.37;;;8.60;93.50;;;;;;5092359;28;20190;-90
2023/10/22 00:28:48;;;;;;;48.10;44.83;;;8.70;93.60;;;;;;5093292;28;20170;-90
2023/10/22 00:31:14;;;;;;;48.30;45.07;;;8.70;93.60;;;;;;5092297;28;20633;-90
2023/10/22 00:33:39;;;;;;;49.90;46.50;;;8.80;93.70;;;;;;5092293;28;20198;-90
2023/10/22 00:36:05;;;;;;;50.27;46.80;;;8.80;93.60;;;;;;5092582;28;20212;-90
2023/10/22 00:38:30;;;;;;;82.13;77.10;;;8.70;93.50;;;;;;5092548;28;20628;-90
2023/10/22 00:40:56;;;;;;;81.13;76.23;;;8.60;93.50;;;;;;5091743;28;20665;-90
2023/10/22 00:43:21;;;;;;;84.47;78.77;;;8.50;93.50;;;;;;5092158;28;20179;-90
2023/10/22 00:45:47;;;;;;;82.37;76.90;;;8.60;93.60;;;;;;5093280;28;20274;-90
2023/10/22 00:48:16;;;;;;;78.10;73.10;;;8.60;93.70;;;;;;5092038;28;20528;-90
2023/10/22 00:50:41;;;;;;;47.23;44.13;;;8.60;93.80;;;;;;5092190;28;20184;-90
2023/10/22 00:53:09;;;;;;;47.97;44.67;;;8.70;93.90;;;;;;5091955;28;20269;-90
2023/10/22 00:55:38;;;;;;;76.37;71.47;;;8.80;93.90;;;;;;5091902;28;20210;-90
2023/10/22 00:58:05;;;;;;;77.93;72.73;;;8.90;94.00;;;;;;5091907;28;20179;-90
2023/10/22 01:00:32;;;;;;;75.53;70.50;;;8.90;93.90;;;;;;5091953;28;20170;-90
2023/10/22 01:02:58;;;;;;;75.47;70.40;;;8.90;93.90;;;;;;5092069;28;20170;-90
2023/10/22 01:05:24;;;;;;;76.30;71.30;;;8.80;93.90;;;;;;5093243;28;20183;-90
2023/10/22 01:07:50;;;;;;;76.37;71.20;;;8.90;93.90;;;;;;5091903;28;20236;-90
2023/10/22 01:10:16;;;;;;;76.03;71.00;;;8.90;93.90;;;;;;5091931;28;20677;-90
2023/10/22 01:12:41;;;;;;;44.43;41.23;;;8.90;93.90;;;;;;5091793;28;20183;-91
2023/10/22 01:15:07;;;;;;;41.67;38.87;;;8.90;93.90;;;;;;5093363;28;20227;-90
2023/10/22 01:17:33;;;;;;;44.40;41.30;;;8.90;93.90;;;;;;5093073;28;20665;-90
2023/10/22 01:19:58;;;;;;;74.67;69.30;;;8.90;93.90;;;;;;5093052;28;20272;-90
2023/10/22 01:22:24;;;;;;;72.00;67.30;;;8.90;93.90;;;;;;5091868;28;20174;-90
2023/10/22 01:24:49;;;;;;;71.50;66.63;;;9.00;93.90;;;;;;5093261;28;20308;-90
2023/10/22 01:27:15;;;;;;;70.37;65.87;;;9.00;93.80;;;;;;5091912;28;20178;-91
2023/10/22 01:29:40;;;;;;;43.47;40.23;;;9.00;93.90;;;;;;5091831;28;20179;-90
2023/10/22 01:32:06;;;;;;;42.23;39.63;;;9.00;93.80;;;;;;5092850;28;20536;-90
2023/10/22 01:34:32;;;;;;;41.67;38.70;;;9.00;93.70;;;;;;5091580;28;20210;-90
2023/10/22 01:36:57;;;;;;;39.47;36.97;;;9.00;93.70;;;;;;5091715;28;20186;-91
2023/10/22 01:39:23;;;;;;;41.13;38.23;;;9.10;93.80;;;;;;5091693;28;20545;-90
2023/10/22 01:41:50;;;;;;;38.33;35.83;;;9.00;93.60;;;;;;5091615;28;20179;-90
2023/10/22 01:44:16;;;;;;;40.27;37.40;;;9.00;93.60;;;;;;5091621;28;20689;-91
2023/10/22 01:46:41;;;;;;;39.10;36.20;;;8.90;93.60;;;;;;5091666;28;20179;-90
2023/10/22 01:49:07;;;;;;;40.50;37.60;;;9.00;93.70;;;;;;5092752;28;20658;-90
2023/10/22 01:51:32;;;;;;;40.07;37.03;;;8.90;93.60;;;;;;5091565;28;20277;-90
2023/10/22 01:53:58;;;;;;;40.67;37.87;;;8.90;93.60;;;;;;5094882;28;20198;-90
2023/10/22 01:56:24;;;;;;;40.47;37.30;;;8.90;93.60;;;;;;5095996;28;20241;-90
2023/10/22 01:58:50;;;;;;;41.30;38.00;;;8.80;93.60;;;;;;5095184;28;20171;-90
2023/10/22 02:01:15;;;;;;;42.67;39.93;;;8.80;93.60;;;;;;5095317;28;20178;-90
2023/10/22 02:03:45;;;;;;;42.70;39.90;;;8.80;93.60;;;;;;5095235;28;20206;-90
2023/10/22 02:06:12;;;;;;;39.83;37.13;;;8.90;93.60;;;;;;5096470;28;20190;-90
2023/10/22 02:08:38;;;;;;;39.40;36.93;;;8.80;93.60;;;;;;5095034;28;20228;-90
2023/10/22 02:11:03;;;;;;;40.27;37.57;;;8.80;93.70;;;;;;5094923;28;20178;-91
2023/10/22 02:13:29;;;;;;;40.63;37.73;;;8.80;93.60;;;;;;5094865;28;20248;-90
2023/10/22 02:15:54;;;;;;;42.07;39.00;;;8.90;93.60;;;;;;5094774;28;20619;-90
2023/10/22 02:18:20;;;;;;;41.83;38.73;;;8.90;93.60;;;;;;5094897;28;20174;-90
2023/10/22 02:20:57;;;;;;;40.37;37.37;;;8.90;93.60;;;;;;5094687;28;20261;-90
2023/10/22 02:23:24;;;;;;;39.33;36.83;;;8.80;93.60;;;;;;5096004;28;20630;-91
2023/10/22 02:25:50;;;;;;;39.87;37.20;;;8.80;93.50;;;;;;5094589;28;20602;-90
2023/10/22 02:28:16;;;;;;;39.43;36.47;;;8.80;93.60;;;;;;5094634;28;20182;-90
2023/10/22 02:30:42;;;;;;;40.50;37.57;;;8.80;93.60;;;;;;5094692;28;20646;-90
2023/10/22 02:33:08;;;;;;;90.80;85.10;;;8.80;93.50;;;;;;5094661;28;20201;-90
2023/10/22 02:35:44;;;;;;;89.20;83.63;;;8.90;93.60;;;;;;5094708;28;20197;-91
2023/10/22 02:38:15;;;;;;;88.17;82.57;;;8.80;93.60;;;;;;5095544;28;20206;-90
2023/10/22 02:40:41;;;;;;;91.17;85.17;;;8.90;93.60;;;;;;5094499;28;20162;-90
2023/10/22 02:43:06;;;;;;;84.00;78.50;;;8.90;93.50;;;;;;5094274;28;20677;-91
2023/10/22 02:45:32;;;;;;;48.03;44.67;;;8.80;93.40;;;;;;5094181;28;20203;-91
2023/10/22 02:47:58;;;;;;;45.33;42.07;;;8.80;93.40;;;;;;5094544;28;20661;-90
2023/10/22 02:50:24;;;;;;;48.20;44.73;;;8.90;93.50;;;;;;5094985;28;20182;-90
2023/10/22 02:52:50;;;;;;;85.90;80.30;;;8.90;93.40;;;;;;5093942;28;20175;-90
2023/10/22 02:55:17;;;;;;;84.30;78.87;;;8.80;93.40;;;;;;5095142;28;20206;-91
2023/10/22 02:57:43;;;;;;;87.47;81.67;;;8.80;93.30;;;;;;5094007;28;20196;-90
2023/10/22 03:00:12;;;;;;;86.27;80.57;;;8.70;93.30;;;;;;5094139;28;20171;-91
2023/10/22 03:02:39;;;;;;;48.23;44.73;;;8.70;93.30;;;;;;5093904;28;20265;-90
2023/10/22 03:05:05;;;;;;;46.63;43.53;;;8.80;93.30;;;;;;5096724;28;20250;-91
2023/10/22 03:07:31;;;;;;;53.37;49.60;;;8.80;93.30;;;;;;5096199;28;20258;-91
2023/10/22 03:09:56;;;;;;;85.03;79.43;;;8.80;93.40;;;;;;5095991;28;20217;-91
2023/10/22 03:12:22;;;;;;;89.00;83.40;;;8.80;93.30;;;;;;5096108;28;20236;-91
2023/10/22 03:14:53;;;;;;;86.73;80.93;;;8.80;93.30;;;;;;5095534;28;20211;-91
2023/10/22 03:17:19;;;;;;;89.20;83.30;;;8.80;93.30;;;;;;5096146;28;20163;-91
2023/10/22 03:19:45;;;;;;;88.43;82.67;;;8.90;93.20;;;;;;5097188;28;20170;-90
2023/10/22 03:22:11;;;;;;;93.83;87.87;;;8.80;93.10;;;;;;5096191;28;20644;-91
2023/10/22 03:24:37;;;;;;;43.90;40.57;;;8.80;93.10;;;;;;5095797;28;20203;-91
2023/10/22 03:27:04;;;;;;;47.37;44.00;;;8.80;93.10;;;;;;5095807;28;20189;-91
2023/10/22 03:29:30;;;;;;;85.63;79.97;;;8.80;93.10;;;;;;5096889;28;20185;-91
2023/10/22 03:31:56;;;;;;;84.30;78.47;;;8.90;93.10;;;;;;5095735;28;20179;-91
2023/10/22 03:34:21;;;;;;;84.90;79.40;;;8.80;93.10;;;;;;5095702;28;20259;-91
2023/10/22 03:36:47;;;;;;;43.57;40.47;;;8.80;93.00;;;;;;5095258;28;20243;-91
2023/10/22 03:39:13;;;;;;;44.90;41.80;;;8.80;93.00;;;;;;5096477;28;20166;-91
2023/10/22 03:41:39;;;;;;;79.33;74.30;;;8.80;93.10;;;;;;5095183;28;20308;-91
2023/10/22 03:44:05;;;;;;;81.60;75.73;;;8.80;93.10;;;;;;5095549;28;20526;-91
2023/10/22 03:46:30;;;;;;;84.33;78.67;;;8.80;93.10;;;;;;5097213;28;20259;-91
2023/10/22 03:48:57;;;;;;;43.80;40.63;;;8.80;93.00;;;;;;5095644;28;20178;-91
2023/10/22 03:51:23;;;;;;;43.63;40.33;;;8.70;93.00;;;;;;5096362;28;20251;-91
2023/10/22 03:53:49;;;;;;;44.07;40.63;;;8.70;93.10;;;;;;5095594;28;20225;-91
2023/10/22 03:56:15;;;;;;;42.70;39.73;;;8.70;93.00;;;;;;5095258;28;20214;-91
2023/10/22 03:58:41;;;;;;;44.37;40.77;;;8.70;93.10;;;;;;5096517;28;20250;-90
2023/10/22 04:01:06;;;;;;;44.13;40.63;;;8.70;93.00;;;;;;5096191;28;20178;-91
2023/10/22 04:03:32;;;;;;;43.63;40.63;;;8.70;93.10;;;;;;5095598;28;20189;-91
2023/10/22 04:05:57;;;;;;;44.67;41.57;;;8.70;93.10;;;;;;5095114;28;20198;-90
2023/10/22 04:08:24;;;;;;;43.73;40.63;;;8.70;93.10;;;;;;5094751;28;20227;-91
2023/10/22 04:10:51;;;;;;;45.53;42.37;;;8.70;93.10;;;;;;5095790;28;20266;-91
2023/10/22 04:13:16;;;;;;;45.67;42.67;;;8.70;93.00;;;;;;5096351;28;20213;-91
2023/10/22 04:15:42;;;;;;;46.93;42.83;;;8.70;93.00;;;;;;5094091;28;20567;-91
2023/10/22 04:18:07;;;;;;;45.53;42.23;;;8.70;92.90;;;;;;5094713;28;20216;-90
2023/10/22 04:20:33;;;;;;;50.60;47.10;;;8.70;93.00;;;;;;5094583;28;20543;-91
2023/10/22 04:22:59;;;;;;;49.07;45.27;;;8.70;93.00;;;;;;5094616;28;20174;-91
2023/10/22 04:25:26;;;;;;;49.73;46.07;;;8.80;93.00;;;;;;5096165;28;20601;-91
2023/10/22 04:27:51;;;;;;;49.43;45.77;;;8.70;92.90;;;;;;5094684;28;20175;-91
2023/10/22 04:30:17;;;;;;;48.03;44.57;;;8.80;93.00;;;;;;5094067;28;20245;-91
2023/10/22 04:32:43;;;;;;;46.23;42.73;;;8.80;92.90;;;;;;5094805;28;20630;-91
2023/10/22 04:35:09;;;;;;;44.70;41.77;;;8.90;93.00;;;;;;5096299;28;20667;-91
2023/10/22 04:37:35;;;;;;;45.67;42.60;;;8.90;92.80;;;;;;5095754;28;20205;-91
2023/10/22 04:40:00;;;;;;;48.40;45.10;;;8.80;92.80;;;;;;5094498;28;20642;-90
2023/10/22 04:42:27;;;;;;;48.23;44.67;;;8.90;92.80;;;;;;5094235;28;20186;-90
2023/10/22 04:44:53;;;;;;;50.00;46.50;;;8.80;92.80;;;;;;5094337;28;20657;-91
2023/10/22 04:47:19;;;;;;;50.23;46.60;;;8.80;92.80;;;;;;5094130;28;20173;-91
2023/10/22 04:49:47;;;;;;;49.80;46.13;;;8.80;92.80;;;;;;5094084;28;20646;-90
2023/10/22 04:52:22;;;;;;;47.07;43.87;;;8.80;92.80;;;;;;5094461;28;20638;-90
2023/10/22 04:54:48;;;;;;;46.87;43.40;;;8.80;92.80;;;;;;5093566;28;20345;-91
2023/10/22 04:57:13;;;;;;;49.63;45.80;;;8.80;92.80;;;;;;5094267;28;20250;-90
2023/10/22 04:59:39;;;;;;;48.20;44.50;;;8.80;92.80;;;;;;5094538;28;20175;-91
2023/10/22 05:02:05;;;;;;;81.97;76.67;;;8.80;92.80;;;;;;5093977;28;20228;-90
2023/10/22 05:04:30;;;;;;;82.63;77.53;;;8.80;92.90;;;;;;5093786;28;20202;-91
2023/10/22 05:06:57;;;;;;;85.33;79.80;;;8.70;92.80;;;;;;5093418;28;20186;-90
2023/10/22 05:09:22;;;;;;;80.77;75.47;;;8.70;92.80;;;;;;5095315;28;20178;-90
2023/10/22 05:11:48;;;;;;;84.27;78.87;;;8.80;92.80;;;;;;5094022;28;20596;-90
2023/10/22 05:14:13;;;;;;;46.47;43.27;;;8.70;92.80;;;;;;5094647;28;20230;-90
2023/10/22 05:16:39;;;;;;;44.40;41.17;;;8.80;92.80;;;;;;5093700;28;20175;-90
2023/10/22 05:19:05;;;;;;;81.17;76.00;;;8.80;92.90;;;;;;5094890;28;20657;-90
2023/10/22 05:21:30;;;;;;;82.17;76.53;;;8.80;92.90;;;;;;5094177;28;20182;-91
2023/10/22 05:23:56;;;;;;;78.23;73.33;;;8.80;93.00;;;;;;5093375;28;20178;-90
2023/10/22 05:26:22;;;;;;;83.03;77.43;;;8.80;92.90;;;;;;5095510;28;20214;-90
2023/10/22 05:28:47;;;;;;;79.70;74.37;;;8.80;92.80;;;;;;5097636;28;20182;-91
2023/10/22 05:31:14;;;;;;;43.97;40.90;;;8.80;92.90;;;;;;5097636;28;20171;-90
2023/10/22 05:33:41;;;;;;;45.63;42.63;;;8.80;92.90;;;;;;5098869;28;20240;-90
2023/10/22 05:36:17;;;;;;;77.03;71.70;;;8.80;92.90;;;;;;5098783;28;20198;-91
2023/10/22 05:38:43;;;;;;;76.07;70.47;;;8.80;92.90;;;;;;5105268;28;20170;-92
2023/10/22 05:41:15;;;;;;;76.57;71.70;;;8.70;92.80;;;;;;5098096;28;20179;-91
2023/10/22 05:43:41;;;;;;;75.23;69.80;;;8.80;92.90;;;;;;5097374;28;20159;-90
2023/10/22 05:46:06;;;;;;;78.07;73.17;;;8.80;92.90;;;;;;5097532;28;20210;-90
2023/10/22 05:48:32;;;;;;;43.23;40.17;;;8.80;93.00;;;;;;5097354;28;20174;-91
2023/10/22 05:51:00;;;;;;;43.80;40.37;;;8.80;93.00;;;;;;5098531;28;20174;-90
2023/10/22 05:53:25;;;;;;;75.07;70.40;;;8.80;92.90;;;;;;5097306;28;20198;-90
2023/10/22 05:55:58;;;;;;;76.10;71.27;;;8.90;92.90;;;;;;5097389;28;20252;-91
2023/10/22 05:58:27;;;;;;;80.93;75.20;;;8.90;92.90;;;;;;5097320;28;20576;-91
2023/10/22 06:00:53;;;;;;;41.63;38.63;;;8.90;92.90;;;;;;5097066;28;20175;-90
2023/10/22 06:03:19;;;;;;;43.40;40.60;;;8.90;92.80;;;;;;5097404;28;20206;-90
2023/10/22 06:05:45;;;;;;;87.07;81.33;;;8.90;92.80;;;;;;5098573;28;20191;-90
2023/10/22 06:08:11;;;;;;;90.93;84.90;;;8.90;92.80;;;;;;5098095;28;20194;-91
2023/10/22 06:10:44;;;;;;;92.50;86.80;;;9.00;92.70;;;;;;5096793;28;20216;-90
2023/10/22 06:13:11;;;;;;;41.00;38.07;;;8.90;92.80;;;;;;5096737;28;20205;-91
2023/10/22 06:15:38;;;;;;;43.93;40.80;;;9.00;92.70;;;;;;5096844;28;20187;-91
2023/10/22 06:18:04;;;;;;;85.07;79.47;;;9.00;92.70;;;;;;5096737;28;20167;-90
2023/10/22 06:20:30;;;;;;;85.43;80.17;;;9.00;92.80;;;;;;5097040;28;20294;-90
2023/10/22 06:22:56;;;;;;;76.30;71.37;;;9.00;92.80;;;;;;5096436;28;20543;-90
2023/10/22 06:25:22;;;;;;;45.00;41.50;;;9.00;92.90;;;;;;5097347;28;20194;-90
2023/10/22 06:27:48;;;;;;;46.40;43.30;;;9.10;92.90;;;;;;5096368;28;20175;-90
2023/10/22 06:30:13;;;;;;;44.97;41.77;;;9.10;93.00;;;;;;5095151;28;20174;-90
2023/10/22 06:32:39;;;;;;;42.40;39.70;;;9.20;93.00;;;;;;5095351;28;20210;-90
2023/10/22 06:35:07;;;;;;;45.97;42.50;;;9.30;93.00;;;;;;5095124;28;20241;-90
2023/10/22 06:37:32;;;;;;;44.70;41.53;;;9.40;93.00;;;;;;5095323;28;20689;-90
2023/10/22 06:39:59;;;;;;;44.57;41.80;;;9.40;92.90;;;;;;5094607;28;20265;-90
2023/10/22 06:42:26;;;;;;;49.45;46.05;;;9.50;92.90;;;;;;5094312;28;20488;-90
2023/10/22 06:44:51;;;;;;;46.03;43.03;;;9.50;92.90;;;;;;5100304;28;20191;-91
2023/10/22 06:47:17;;;;;;;45.87;42.23;;;9.50;92.80;;;;;;5096349;28;20596;-90
2023/10/22 06:49:43;;;;;;;43.93;40.87;;;9.60;92.80;;;;;;5098546;28;20171;-91
2023/10/22 06:52:08;;;;;;;41.80;38.73;;;9.70;92.80;;;;;;5097729;28;20678;-90
2023/10/22 06:54:34;;;;;;;40.53;37.07;;;9.70;92.70;;;;;;5096908;28;20237;-89
2023/10/22 06:57:00;;;;;;;39.87;37.27;;;9.80;92.80;;;;;;5100470;28;20163;-90
2023/10/22 06:59:25;;;;;;;40.43;37.60;;;9.80;92.60;;;;;;5098846;28;20178;-90
2023/10/22 07:01:51;;;;;;;42.30;39.37;;;9.80;92.60;;;;;;5098845;28;20167;-91
2023/10/22 07:04:17;;;;;;;42.80;39.70;;;9.90;92.50;;;;;;5099596;28;20179;-91
2023/10/22 07:06:44;;;;;;;41.10;38.03;;;9.90;92.50;;;;;;5101315;28;20175;-91
2023/10/22 07:09:10;;;;;;;42.00;38.73;;;10.00;92.40;;;;;;5100857;28;20174;-91
2023/10/22 07:11:37;;;;;;;39.20;36.30;;;10.00;92.30;;;;;;5098109;28;20257;-91
2023/10/22 07:14:02;;;;;;;39.13;36.00;;;10.00;92.30;;;;;;5101137;28;20198;-91
2023/10/22 07:16:28;;;;;;;39.90;37.10;;;10.00;92.40;;;;;;5100966;28;20197;-91
2023/10/22 07:18:53;;;;;;;36.63;34.33;;;10.10;92.40;;;;;;5100858;28;20166;-91
2023/10/22 07:21:19;;;;;;;38.40;35.63;;;10.20;92.30;;;;;;5101513;28;20174;-91
2023/10/22 07:23:45;;;;;;;37.17;34.77;;;10.10;92.20;;;;;;5101161;28;20178;-91
2023/10/22 07:26:10;;;;;;;36.57;33.83;;;10.20;92.30;;;;;;5100736;28;20187;-91
2023/10/22 07:28:41;;;;;;;37.70;35.03;;;10.20;92.20;;;;;;5101959;28;20527;-91
2023/10/22 07:31:07;;;;;;;33.97;31.47;;;10.20;92.20;;;;;;5101032;28;20189;-91
2023/10/22 07:33:33;;;;;;;33.50;31.30;;;10.30;92.10;;;;;;5098217;28;20682;-91
2023/10/22 07:36:07;;;;;;;34.97;32.30;;;10.30;92.00;;;;;;5099055;28;20182;-91
2023/10/22 07:38:33;;;;;;;35.93;33.30;;;10.40;91.80;;;;;;5100654;28;20165;-91
2023/10/22 07:40:59;;;;;;;32.70;30.03;;;10.40;91.70;;;;;;5105339;28;20246;-91
2023/10/22 07:43:27;;;;;;;36.07;33.50;;;10.50;91.70;;;;;;5100502;28;20215;-91
2023/10/22 07:45:57;;;;;;;64.97;60.87;;;10.50;91.70;;;;;;5103073;28;20191;-92
2023/10/22 07:48:22;;;;;;;64.93;60.57;;;10.50;91.70;;;;;;5101081;28;20200;-91
2023/10/22 07:50:48;;;;;;;59.80;55.70;;;10.70;91.40;;;;;;5099835;28;20262;-90
2023/10/22 07:53:14;;;;;;;60.37;56.37;;;10.80;90.90;;;;;;5101217;28;20283;-91
2023/10/22 07:55:40;;;;;;;38.17;35.27;;;10.80;90.70;;;;;;5100664;28;20229;-90
2023/10/22 07:58:05;;;;;;;38.67;36.07;;;11.00;90.80;;;;;;5102767;28;20199;-91
2023/10/22 08:00:31;;;;;;;58.77;54.87;;;11.00;90.70;;;;;;5099138;28;20173;-90
2023/10/22 08:02:57;;;;;;;60.33;56.37;;;11.10;90.50;;;;;;5101867;28;20204;-91
2023/10/22 08:05:23;;;;;;;59.50;55.20;;;11.10;90.50;;;;;;5099594;28;20254;-91
2023/10/22 08:07:48;;;;;;;59.73;55.70;;;11.20;90.30;;;;;;5097738;28;20650;-91
2023/10/22 08:10:15;;;;;;;38.23;35.33;;;11.20;89.80;;;;;;5095833;28;20163;-92
2023/10/22 08:12:41;;;;;;;36.87;34.20;;;11.30;89.90;;;;;;5095153;28;20173;-91
2023/10/22 08:15:07;;;;;;;56.87;52.90;;;11.30;89.70;;;;;;5096072;28;20297;-91
2023/10/22 08:17:32;;;;;;;56.20;52.50;;;11.50;89.50;;;;;;5098756;28;20266;-91
2023/10/22 08:19:58;;;;;;;57.73;53.80;;;11.50;89.30;;;;;;5098919;28;20214;-92
2023/10/22 08:22:23;;;;;;;54.53;51.03;;;11.60;89.30;;;;;;5101279;28;20203;-91
2023/10/22 08:24:49;;;;;;;33.50;31.27;;;11.70;89.20;;;;;;5098773;28;20697;-90
2023/10/22 08:27:15;;;;;;;34.30;31.90;;;11.80;89.20;;;;;;5098175;28;20278;-91
2023/10/22 08:29:41;;;;;;;32.03;29.50;;;11.80;88.90;;;;;;5101183;28;20205;-91
2023/10/22 08:32:06;;;;;;;33.20;30.50;;;11.90;88.80;;;;;;5099783;28;20171;-91
2023/10/22 08:34:32;;;;;;;34.90;32.00;;;11.80;88.60;;;;;;5099815;28;20226;-91
2023/10/22 08:36:58;;;;;;;33.37;31.10;;;11.90;88.80;;;;;;5100772;28;20263;-91
2023/10/22 08:39:27;;;;;;;34.37;31.60;;;11.90;88.50;;;;;;5097284;28;20280;-91
2023/10/22 08:42:09;;;;;;;33.80;30.63;;;12.00;88.20;;;;;;5097572;28;20178;-91
2023/10/22 08:44:44;;;;;;;34.20;31.73;;;12.00;87.90;;;;;;5097463;28;20205;-91
2023/10/22 08:47:10;;;;;;;32.50;30.30;;;12.10;87.50;;;;;;5098349;28;20169;-91
2023/10/22 08:49:38;;;;;;;32.23;29.87;;;12.10;87.50;;;;;;5096139;28;20171;-91
2023/10/22 08:52:04;;;;;;;33.67;31.37;;;12.20;87.50;;;;;;5095701;28;20181;-90
2023/10/22 08:54:30;;;;;;;32.23;30.03;;;12.10;87.50;;;;;;5096656;28;20278;-91
2023/10/22 08:56:56;;;;;;;32.17;29.87;;;12.10;87.50;;;;;;5096083;28;20585;-90
2023/10/22 08:59:23;;;;;;;32.73;30.53;;;12.20;87.40;;;;;;5096411;28;20175;-91
2023/10/22 09:01:50;;;;;;;33.27;30.90;;;12.10;87.50;;;;;;5098191;28;20170;-91
2023/10/22 09:04:15;;;;;;;32.33;30.23;;;12.10;87.70;;;;;;5099002;28;20212;-89
2023/10/22 09:06:41;;;;;;;46.27;43.07;;;12.10;88.00;;;;;;5100409;28;20174;-91
2023/10/22 09:09:07;;;;;;;43.27;40.30;;;12.00;88.10;;;;;;5102522;28;20191;-90
2023/10/22 09:11:34;;;;;;;43.33;40.50;;;12.00;88.30;;;;;;5102617;28;20178;-91
2023/10/22 09:13:59;;;;;;;40.47;37.87;;;12.00;88.50;;;;;;5102248;28;20202;-89
2023/10/22 09:16:29;;;;;;;42.50;39.60;;;12.00;88.40;;;;;;5098004;28;20201;-89
2023/10/22 09:18:55;;;;;;;44.27;41.27;;;12.00;88.80;;;;;;5096509;28;20227;-89
2023/10/22 09:21:20;;;;;;;45.03;42.23;;;11.90;89.30;;;;;;5097565;28;20163;-90
2023/10/22 09:24:05;;;;;;;41.33;38.83;;;11.90;89.70;;;;;;5097594;28;20669;-90
2023/10/22 09:26:46;;;;;;;43.43;40.53;;;11.80;90.10;;;;;;5096286;28;20550;-90
2023/10/22 09:29:12;;;;;;;36.43;34.13;;;11.80;90.60;;;;;;5096652;28;20167;-91
2023/10/22 09:31:38;;;;;;;36.73;34.20;;;11.80;90.90;;;;;;5098342;28;20175;-91
2023/10/22 09:34:03;;;;;;;38.27;35.97;;;11.80;91.20;;;;;;5097438;28;20745;-90
2023/10/22 09:36:29;;;;;;;36.33;34.03;;;11.70;91.60;;;;;;5096546;28;20202;-91
2023/10/22 09:38:56;;;;;;;35.63;33.20;;;11.60;92.10;;;;;;5096466;28;20555;-91
2023/10/22 09:41:26;;;;;;;36.53;34.10;;;11.60;92.40;;;;;;5096820;28;20234;-91
2023/10/22 09:44:02;;;;;;;36.30;33.97;;;11.60;92.60;;;;;;5097154;28;20190;-91
2023/10/22 09:46:30;;;;;;;51.17;48.13;;;11.60;93.00;;;;;;5097423;28;20281;-91
2023/10/22 09:49:03;;;;;;;49.87;46.87;;;11.50;93.40;;;;;;5097121;28;20673;-91
2023/10/22 09:51:35;;;;;;;48.77;45.47;;;11.40;93.80;;;;;;5097151;28;20182;-91
2023/10/22 09:54:05;;;;;;;34.97;32.87;;;11.40;94.00;;;;;;5097214;28;20203;-90
2023/10/22 09:56:32;;;;;;;34.93;32.73;;;11.30;94.30;;;;;;5098481;28;20202;-92
2023/10/22 09:59:07;;;;;;;34.10;32.03;;;11.30;94.50;;;;;;5097559;28;20179;-91
2023/10/22 10:01:34;;;;;;;47.63;44.23;;;11.30;94.80;;;;;;5096875;28;20265;-91
2023/10/22 10:04:01;;;;;;;47.57;44.87;;;11.30;94.90;;;;;;5096772;28;20202;-91
2023/10/22 10:06:29;;;;;;;47.93;44.83;;;11.30;95.10;;;;;;5101017;28;20203;-91
2023/10/22 10:08:56;;;;;;;33.90;31.37;;;11.30;95.30;;;;;;5097222;28;20178;-91
2023/10/22 10:11:22;;;;;;;30.73;28.60;;;11.30;95.40;;;;;;5096360;28;20178;-90
2023/10/22 10:13:48;;;;;;;47.27;44.27;;;11.30;95.50;;;;;;5097106;28;20198;-91
2023/10/22 10:16:13;;;;;;;44.57;41.97;;;11.30;95.50;;;;;;5098272;28;20190;-92
2023/10/22 10:18:58;;;;;;;48.83;45.63;;;11.30;95.60;;;;;;5099294;28;20179;-91
2023/10/22 10:21:51;;;;;;;47.83;44.87;;;11.30;95.70;;;;;;5098843;28;20234;-91
2023/10/22 10:24:17;;;;;;;36.73;34.27;;;11.30;95.80;;;;;;5094783;28;20213;-89
2023/10/22 10:26:44;;;;;;;33.90;31.70;;;11.30;95.80;;;;;;5097398;28;20245;-89
2023/10/22 10:29:18;;;;;;;49.20;46.07;;;11.30;95.90;;;;;;5096824;28;20205;-89
2023/10/22 10:31:45;;;;;;;49.30;46.13;;;11.30;95.90;;;;;;5097637;28;20215;-91
2023/10/22 10:34:21;;;;;;;50.40;47.37;;;11.40;96.00;;;;;;5097447;28;20191;-89
2023/10/22 10:36:49;;;;;;;31.20;29.30;;;11.40;96.10;;;;;;5096772;28;20292;-89
2023/10/22 10:39:39;;;;;;;32.90;30.90;;;11.40;96.10;;;;;;5095796;28;20166;-90
2023/10/22 10:42:05;;;;;;;55.63;52.03;;;11.50;96.20;;;;;;5092810;28;20175;-90
2023/10/22 10:44:31;;;;;;;51.63;48.43;;;11.50;96.20;;;;;;5095008;28;20201;-90
2023/10/22 10:47:24;;;;;;;37.73;35.47;;;11.50;96.20;;;;;;5096002;28;20193;-90
2023/10/22 10:50:10;;;;;;;33.37;31.17;;;11.60;96.20;;;;;;5095721;28;20590;-90
2023/10/22 10:52:47;;;;;;;52.80;49.70;;;11.60;96.20;;;;;;5095788;28;20171;-90
2023/10/22 10:55:19;;;;;;;53.00;49.70;;;11.60;96.10;;;;;;5105084;28;20226;-91
2023/10/22 10:57:50;;;;;;;53.87;50.57;;;11.70;96.10;;;;;;5097814;28;20642;-90
2023/10/22 11:00:30;;;;;;;38.60;36.07;;;11.70;96.00;;;;;;5095516;28;20170;-90
2023/10/22 11:03:00;;;;;;;41.47;38.67;;;11.70;95.90;;;;;;5095482;28;20190;-90
2023/10/22 11:05:39;;;;;;;40.50;38.03;;;11.70;95.80;;;;;;5097163;28;20565;-90
2023/10/22 11:08:18;;;;;;;41.67;38.87;;;11.80;95.60;;;;;;5095035;28;20547;-90
2023/10/22 11:10:45;;;;;;;41.57;38.87;;;11.90;95.50;;;;;;5094912;28;20608;-91
2023/10/22 11:13:11;;;;;;;41.67;38.80;;;11.90;95.40;;;;;;5095970;28;20523;-90
2023/10/22 11:15:37;;;;;;;43.23;40.40;;;11.90;95.40;;;;;;5096016;28;20205;-90
2023/10/22 11:18:05;;;;;;;42.67;39.87;;;11.90;95.30;;;;;;5094550;28;20206;-90
2023/10/22 11:20:31;;;;;;;49.87;45.97;;;11.90;95.20;;;;;;5094922;28;20175;-90
2023/10/22 11:22:57;;;;;;;43.37;40.63;;;11.90;95.20;;;;;;5094646;28;20178;-90
2023/10/22 11:25:24;;;;;;;47.50;44.13;;;11.90;95.10;;;;;;5093826;28;20203;-90
2023/10/22 11:27:50;;;;;;;49.87;46.53;;;11.90;95.00;;;;;;5094053;28;20182;-90
2023/10/22 11:30:51;;;;;;;44.43;41.63;;;11.90;94.90;;;;;;5094638;28;20227;-90
2023/10/22 11:33:31;;;;;;;42.97;39.77;;;11.90;94.90;;;;;;5076625;28;20189;-91
2023/10/22 11:35:57;;;;;;;44.73;41.33;;;11.90;94.50;;;;;;5091656;28;20568;-90
2023/10/22 11:38:23;;;;;;;45.60;42.47;;;12.00;94.40;;;;;;5095056;28;20182;-91
2023/10/22 11:40:53;;;;;;;47.20;43.77;;;11.90;94.20;;;;;;5093898;28;20178;-91
2023/10/22 11:43:23;;;;;;;45.97;43.03;;;12.00;94.10;;;;;;5094994;28;20634;-90
2023/10/22 11:45:56;;;;;;;46.67;43.67;;;12.10;94.10;;;;;;5094896;28;20190;-90
2023/10/22 11:48:29;;;;;;;43.87;41.03;;;12.20;93.90;;;;;;5093825;28;20181;-91
2023/10/22 11:51:00;;;;;;;41.90;38.73;;;12.30;93.60;;;;;;5094130;28;20261;-91
2023/10/22 11:53:40;;;;;;;40.60;37.83;;;12.50;93.40;;;;;;5093731;28;20228;-91
2023/10/22 11:56:06;;;;;;;42.00;39.13;;;12.50;92.90;;;;;;5093197;28;20273;-90
2023/10/22 11:58:31;;;;;;;42.33;39.63;;;12.60;92.50;;;;;;5093461;28;20376;-90
2023/10/22 12:00:57;;;;;;;45.10;42.13;;;12.60;92.40;;;;;;5094347;28;20303;-91
2023/10/22 12:03:23;;;;;;;41.60;39.00;;;12.70;92.40;;;;;;5093318;28;20258;-91
2023/10/22 12:05:49;;;;;;;41.20;38.47;;;12.80;92.10;;;;;;5093044;28;20194;-91
2023/10/22 12:08:14;;;;;;;39.10;36.23;;;12.80;91.50;;;;;;5093438;28;20668;-90
2023/10/22 12:10:41;;;;;;;39.33;36.40;;;12.80;91.20;;;;;;5093032;28;20178;-90
2023/10/22 12:13:06;;;;;;;38.57;35.90;;;12.90;91.30;;;;;;5092922;28;20182;-90
2023/10/22 12:15:35;;;;;;;40.33;37.53;;;12.90;91.00;;;;;;5093723;28;20654;-90
2023/10/22 12:18:01;;;;;;;41.27;37.93;;;12.90;90.80;;;;;;5092907;28;20170;-91
2023/10/22 12:20:26;;;;;;;41.00;38.00;;;12.90;90.80;;;;;;5092855;28;20174;-90
2023/10/22 12:22:52;;;;;;;41.27;38.60;;;12.90;90.80;;;;;;5092904;28;20550;-89
2023/10/22 12:25:18;;;;;;;47.23;44.00;;;12.90;90.20;;;;;;5093058;28;20234;-89
2023/10/22 12:27:44;;;;;;;42.63;39.13;;;13.00;89.90;;;;;;5092435;28;20265;-90
2023/10/22 12:30:10;;;;;;;41.37;38.60;;;13.00;90.10;;;;;;5092599;28;20166;-89
2023/10/22 12:32:36;;;;;;;38.97;36.17;;;13.00;89.90;;;;;;5093725;28;20192;-90
2023/10/22 12:35:02;;;;;;;39.80;37.07;;;13.10;90.00;;;;;;5092181;28;20210;-89